Airfield :
LOGIN :

Register | Disclaimer

   EN    FR    IT 

 










Legend :    VFR   Marginal VFR   IFR   Intensive IFR   Very Intensive IFR
Visi :
Ceiling :
>= 8 km
>= 3000ft
5 to 8 km
1000 to 3000 ft
1500m to 5 km
500 to 1000 ft
800 to 1500m
200 to 500 ft
< 800m
< 200 ft
Symbols :   Thunderstorms  Fog  Heavy snow  Heavy precipitations  Wind > 20 kt
SIGMETs :     Misc.  Thunderstorms  Icing  Turbulence  Mountain Waves  Volcanic Ashes







- Airport Elevation : 203 ft
- IATA code : XMJ
- Download approach charts


LFBM - Mont-De-Marsan

CURRENT METAR :
  • 251500Z AUTO 30014KT 9999 BKN036/// BKN045/// ///TCU 21/14 Q1021 BECMG SCT020 BKN030

EXPIRED METARs :
  • 251430Z AUTO 28014KT 9999 BKN034/// BKN040/// ///TCU 22/14 Q1021 BECMG SCT020 BKN030
  • 251400Z AUTO 29011KT 260V330 9999 SCT029/// BKN035/// BKN100/// ///TCU 22/16 Q1020
  • 251330Z AUTO 30008KT 270V340 9999 -RA FEW020/// BKN026/// BKN044/// ///CB 21/17 Q1021 TEMPO 28015G25KT 4000 SHRA BECMG NSC
  • 251300Z AUTO 28009KT 240V310 9999 FEW015/// SCT086/// BKN100/// ///CB 22/18 Q1020 TEMPO 28015G25KT 4000 SHRA BKN008 BKN015 BKN030TCU
  • 251230Z AUTO 27006KT 9999 FEW026/// BKN045/// BKN074/// ///CB 18/16 Q1021 TEMPO 28015G25KT 4000 SHRA BKN008 BKN015 BKN030TCU

TAF TAF LFBM
Valid from the 25 at 15:00 until the 26 at 15:00 UTC


251400Z 2515/2615 30008KT 9999 SCT020 BKN030
BECMG 2601/2603 BKN014
TEMPO 2603/2606 1500 BCFG
BECMG 2606/2608 BKN030
No reported NOTAMs for that airfield.
1 SIGMET reported for the Bordeaux FIR (LFBB) :
 
Embedded thunderstorms
LFBB SIGMET 11 VALID 251400/251600 LFPW
LFBB BORDEAUX FIR/UIR EMBD TS OBS WI N4615 W00015 - N4615 E00030 - N4400 E00115 - N4300 E00000 TOP FL300 MOV E 15KT NC=



MET'MAP, your aeronautical weather chart ! - Copyright ORBIFLY December 2007 - Disclaimer

ORBIFLY MET'MAP TEAM :

Programming & Development : Alexandra Zaïnal
Concept & Development : Baudouin d'Aumeries
Co-Development & Prog : Marc-Olivier Méhu
Technical & hardware support : Manuel Goepfert

Contact : metmap@orbifly.com




SOURCES & CREDITS :

   NOAA